Time,TemperatureF,DewpointF,PressureIn,WindDirection,WindDirectionDegrees,WindSpeedMPH,WindSpeedGustMPH,Humidity,HourlyPrecipIn,Conditions,Clouds,dailyrainin,SoftwareType,DateUTC
2013-02-13 03:40:00,40.2,36.9,29.51,ENE,68,1.3,6.2,88,0.00,,---,0.00,VWS V12.08,2013-02-13 08:40:00,
2013-02-13 03:56:00,40.6,37.3,29.51,East,90,4.9,0.0,88,0.00,,---,0.00,VWS V12.08,2013-02-13 08:56:00,
2013-02-13 04:01:00,40.6,37.3,29.51,East,90,4.0,5.8,88,0.00,,---,0.00,VWS V12.08,2013-02-13 09:01:00,
2013-02-13 04:16:00,40.8,37.8,29.49,ESE,112,4.0,6.4,89,0.00,,---,0.00,VWS V12.08,2013-02-13 09:16:00,
2013-02-13 04:20:00,40.8,37.8,29.49,East,90,4.6,6.4,89,0.00,,---,0.00,VWS V12.08,2013-02-13 09:20:00,
2013-02-13 04:37:00,40.8,37.8,29.48,ENE,68,0.8,6.4,89,0.00,,---,0.00,VWS V12.08,2013-02-13 09:37:00,
2013-02-13 04:40:00,40.8,37.8,29.49,ENE,68,2.2,6.4,89,0.00,,---,0.00,VWS V12.08,2013-02-13 09:40:00,
2013-02-13 04:56:00,41.1,38.1,29.48,East,90,2.4,0.0,89,0.00,,---,0.00,VWS V12.08,2013-02-13 09:56:00,
2013-02-13 05:01:00,41.1,38.1,29.48,ENE,68,5.8,6.2,89,0.00,,---,0.00,VWS V12.08,2013-02-13 10:01:00,
2013-02-13 05:16:00,41.3,38.3,29.49,ENE,68,2.0,5.8,89,0.00,,---,0.00,VWS V12.08,2013-02-13 10:16:00,
2013-02-13 05:20:00,41.3,38.3,29.48,NE,45,0.0,5.8,89,0.00,,---,0.00,VWS V12.08,2013-02-13 10:20:00,
2013-02-13 05:37:00,41.5,38.8,29.47,East,90,0.0,0.0,90,0.00,,---,0.00,VWS V12.08,2013-02-13 10:37:00,
2013-02-13 05:46:00,41.5,38.8,29.48,SE,135,3.3,4.6,90,0.00,,---,0.00,VWS V12.08,2013-02-13 10:46:00,
2013-02-13 06:01:00,41.7,39.0,29.49,East,90,2.2,4.6,90,0.00,,---,0.00,VWS V12.08,2013-02-13 11:01:00,
2013-02-13 06:18:00,41.9,39.2,29.48,SSE,158,1.7,4.9,90,0.00,,---,0.00,VWS V12.08,2013-02-13 11:18:00,
2013-02-13 06:20:00,41.9,39.2,29.48,East,90,1.5,4.9,90,0.00,,---,0.00,VWS V12.08,2013-02-13 11:20:00,
2013-02-13 06:37:00,42.0,39.3,29.48,ESE,112,0.0,0.0,90,0.00,,---,0.00,VWS V12.08,2013-02-13 11:37:00,
2013-02-13 06:40:00,42.0,39.3,29.48,SE,135,1.7,6.2,90,0.00,,---,0.00,VWS V12.08,2013-02-13 11:40:00,
2013-02-13 06:53:00,42.4,39.7,29.47,East,90,3.1,0.0,90,0.00,,---,0.00,VWS V12.08,2013-02-13 11:53:00,
2013-02-13 07:00:00,42.4,39.7,29.47,ESE,112,0.0,5.3,90,0.00,,---,0.00,VWS V12.08,2013-02-13 12:00:00,
2013-02-13 07:11:00,42.4,39.7,29.49,ESE,112,0.0,0.0,90,0.00,,---,0.00,VWS V12.08,2013-02-13 12:11:00,
2013-02-13 07:20:00,42.6,39.9,29.48,SSW,202,0.0,0.0,90,0.00,,---,0.00,VWS V12.08,2013-02-13 12:20:00,
2013-02-13 07:35:00,42.6,39.9,29.48,SE,135,0.0,0.0,90,0.00,,---,0.00,VWS V12.08,2013-02-13 12:35:00,
2013-02-13 07:40:00,42.8,40.1,29.48,SE,135,0.0,0.0,90,0.00,,---,0.00,VWS V12.08,2013-02-13 12:40:00,
2013-02-13 07:53:00,42.9,40.2,29.49,SE,135,0.0,0.0,90,0.00,,---,0.00,VWS V12.08,2013-02-13 12:53:00,
2013-02-13 08:08:00,43.1,40.4,29.49,SE,135,0.0,0.0,90,0.00,,---,0.00,VWS V12.08,2013-02-13 13:08:00,
2013-02-13 08:26:00,43.5,40.8,29.49,South,180,0.0,0.0,90,0.02,,---,0.02,VWS V12.08,2013-02-13 13:26:00,
2013-02-13 08:31:00,43.7,41.0,29.50,SSE,158,0.0,0.0,90,0.02,,---,0.02,VWS V12.08,2013-02-13 13:31:00,
2013-02-13 08:46:00,43.8,41.1,29.51,SSW,202,0.0,0.0,90,0.02,,---,0.02,VWS V12.08,2013-02-13 13:46:00,
2013-02-13 09:03:00,44.0,41.3,29.51,SSE,158,0.0,0.0,90,0.02,,---,0.02,VWS V12.08,2013-02-13 14:03:00,
2013-02-13 09:23:00,44.2,41.5,29.51,NNW,338,0.0,3.8,90,0.00,,---,0.02,VWS V12.08,2013-02-13 14:23:00,
2013-02-13 09:41:00,44.4,41.9,29.50,WNW,292,0.0,3.5,91,0.00,,---,0.02,VWS V12.08,2013-02-13 14:41:00,
2013-02-13 10:01:00,44.2,41.7,29.50,SE,135,0.0,3.8,91,0.00,,---,0.02,VWS V12.08,2013-02-13 15:01:00,
2013-02-13 10:18:00,43.8,41.3,29.51,South,180,0.0,0.0,91,0.00,,---,0.02,VWS V12.08,2013-02-13 15:18:00,
2013-02-13 10:20:00,43.8,41.3,29.51,SSE,158,0.0,0.0,91,0.00,,---,0.02,VWS V12.08,2013-02-13 15:20:00,
2013-02-13 10:31:00,43.7,41.0,29.50,SW,225,0.0,0.0,90,0.00,,---,0.02,VWS V12.08,2013-02-13 15:31:00,
2013-02-13 10:46:00,43.5,40.8,29.51,SW,225,0.0,0.0,90,0.00,,---,0.02,VWS V12.08,2013-02-13 15:46:00,
2013-02-13 11:08:00,43.3,40.6,29.51,East,90,0.0,4.9,90,0.00,,---,0.02,VWS V12.08,2013-02-13 16:08:00,
2013-02-13 11:16:00,43.1,40.4,29.51,SSE,158,0.0,4.6,90,0.00,,---,0.02,VWS V12.08,2013-02-13 16:16:00,
2013-02-13 11:20:00,42.9,40.2,29.51,ENE,68,0.0,4.6,90,0.00,,---,0.02,VWS V12.08,2013-02-13 16:20:00,
2013-02-13 11:31:00,42.9,40.2,29.51,SE,135,0.0,0.0,90,0.00,,---,0.02,VWS V12.08,2013-02-13 16:31:00,
2013-02-13 11:46:00,42.9,40.2,29.53,ENE,68,0.0,3.8,90,0.00,,---,0.02,VWS V12.08,2013-02-13 16:46:00,
2013-02-13 12:01:00,42.6,39.9,29.53,SW,225,0.0,0.0,90,0.00,,---,0.02,VWS V12.08,2013-02-13 17:01:00,
2013-02-13 12:16:00,42.4,39.4,29.53,SE,135,0.0,6.2,89,0.00,,---,0.02,VWS V12.08,2013-02-13 17:16:00,
2013-02-13 12:20:00,42.4,39.4,29.53,SE,135,0.0,6.2,89,0.00,,---,0.02,VWS V12.08,2013-02-13 17:20:00,
2013-02-13 12:31:00,42.2,39.2,29.53,ENE,68,0.0,0.0,89,0.00,,---,0.02,VWS V12.08,2013-02-13 17:31:00,
2013-02-13 12:46:00,42.2,39.2,29.54,West,270,0.0,5.3,89,0.00,,---,0.02,VWS V12.08,2013-02-13 17:46:00,
2013-02-13 13:01:00,42.4,39.4,29.54,WSW,248,0.0,0.0,89,0.00,,---,0.02,VWS V12.08,2013-02-13 18:01:00,
2013-02-13 13:16:00,42.4,39.1,29.53,SE,135,0.0,0.0,88,0.00,,---,0.02,VWS V12.08,2013-02-13 18:16:00,
2013-02-13 13:20:00,42.4,39.1,29.54,ESE,112,0.0,0.0,88,0.00,,---,0.02,VWS V12.08,2013-02-13 18:20:00,
2013-02-13 13:31:00,42.4,39.1,29.54,NW,315,0.0,0.0,88,0.00,,---,0.02,VWS V12.08,2013-02-13 18:31:00,
2013-02-13 13:46:00,42.4,39.1,29.54,ESE,112,0.0,0.0,88,0.00,,---,0.02,VWS V12.08,2013-02-13 18:46:00,
2013-02-13 14:01:00,42.6,39.6,29.54,NE,45,0.0,0.8,89,0.00,,---,0.02,VWS V12.08,2013-02-13 19:01:00,
2013-02-13 14:16:00,42.4,39.4,29.54,ENE,68,0.0,2.4,89,0.00,,---,0.02,VWS V12.08,2013-02-13 19:16:00,
2013-02-13 14:20:00,42.4,39.4,29.54,ENE,68,2.0,2.4,89,0.00,,---,0.02,VWS V12.08,2013-02-13 19:20:00,
2013-02-13 14:31:00,41.9,38.6,29.55,SSW,202,0.0,0.0,88,0.00,,---,0.02,VWS V12.08,2013-02-13 19:31:00,
2013-02-13 14:46:00,41.5,37.9,29.55,NE,45,0.0,5.3,87,0.00,,---,0.02,VWS V12.08,2013-02-13 19:46:00,
2013-02-13 15:01:00,40.8,36.9,29.55,ENE,68,0.0,5.5,86,0.00,,---,0.02,VWS V12.08,2013-02-13 20:01:00,
2013-02-13 15:16:00,40.6,36.8,29.57,ENE,68,0.0,2.4,86,0.00,,---,0.02,VWS V12.08,2013-02-13 20:16:00,
2013-02-13 15:20:00,40.6,36.8,29.57,NNW,338,0.0,2.4,86,0.00,,---,0.02,VWS V12.08,2013-02-13 20:20:00,
2013-02-13 15:31:00,40.1,36.0,29.57,ENE,68,3.8,0.0,85,0.00,,---,0.02,VWS V12.08,2013-02-13 20:31:00,
2013-02-13 15:46:00,39.9,35.8,29.58,ENE,68,0.0,3.8,85,0.00,,---,0.02,VWS V12.08,2013-02-13 20:46:00,
2013-02-13 16:01:00,39.5,35.4,29.60,ENE,68,0.0,1.7,85,0.00,,---,0.02,VWS V12.08,2013-02-13 21:01:00,
2013-02-13 16:16:00,39.3,35.2,29.61,ENE,68,2.2,2.4,85,0.00,,---,0.02,VWS V12.08,2013-02-13 21:16:00,
2013-02-13 16:20:00,39.0,34.9,29.61,ENE,68,1.1,2.4,85,0.00,,---,0.02,VWS V12.08,2013-02-13 21:20:00,
2013-02-13 16:31:00,39.0,34.9,29.62,NE,45,0.0,1.7,85,0.00,,---,0.02,VWS V12.08,2013-02-13 21:31:00,
2013-02-13 16:48:00,38.8,34.7,29.63,North,0,0.0,1.7,85,0.00,,---,0.02,VWS V12.08,2013-02-13 21:48:00,
2013-02-13 17:08:00,38.4,34.3,29.63,East,90,2.0,2.9,85,0.00,,---,0.02,VWS V12.08,2013-02-13 22:08:00,
2013-02-13 17:16:00,38.1,33.7,29.64,NE,45,0.0,2.0,84,0.00,,---,0.02,VWS V12.08,2013-02-13 22:16:00,
2013-02-13 17:20:00,38.3,34.2,29.64,SSW,202,0.0,2.0,85,0.00,,---,0.02,VWS V12.08,2013-02-13 22:20:00,
2013-02-13 17:33:00,38.1,34.0,29.64,NW,315,0.0,0.0,85,0.00,,---,0.02,VWS V12.08,2013-02-13 22:33:00,
2013-02-13 17:46:00,37.9,33.8,29.65,West,270,0.0,0.0,85,0.00,,---,0.02,VWS V12.08,2013-02-13 22:46:00,
2013-02-13 18:01:00,38.1,34.0,29.66,NW,315,0.0,0.0,85,0.00,,---,0.02,VWS V12.08,2013-02-13 23:01:00,
2013-02-13 18:16:00,37.9,33.5,29.66,NE,45,0.0,0.0,84,0.00,,---,0.02,VWS V12.08,2013-02-13 23:16:00,
2013-02-13 18:20:00,37.9,33.5,29.66,NNW,338,0.0,0.0,84,0.00,,---,0.02,VWS V12.08,2013-02-13 23:20:00,
2013-02-13 18:31:00,37.9,33.5,29.67,SE,135,0.0,0.0,84,0.00,,---,0.02,VWS V12.08,2013-02-13 23:31:00,
2013-02-13 18:46:00,37.9,33.5,29.68,NNE,22,0.0,0.0,84,0.00,,---,0.02,VWS V12.08,2013-02-13 23:46:00,
2013-02-13 19:03:00,37.9,33.5,29.68,NNW,338,0.0,0.0,84,0.00,,---,0.02,VWS V12.08,2013-02-14 00:03:00,
2013-02-13 19:26:00,37.9,33.5,29.69,NE,45,0.0,0.0,84,0.00,,---,0.02,VWS V12.08,2013-02-14 00:26:00,
2013-02-13 19:31:00,38.1,33.7,29.68,SSW,202,0.0,0.0,84,0.00,,---,0.02,VWS V12.08,2013-02-14 00:31:00,
2013-02-13 19:48:00,38.1,33.7,29.69,SSW,202,0.0,0.0,84,0.00,,---,0.02,VWS V12.08,2013-02-14 00:48:00,
2013-02-13 20:02:00,38.1,33.7,29.69,South,180,0.0,0.0,84,0.00,,---,0.02,VWS V12.08,2013-02-14 01:02:00,
2013-02-13 20:18:00,38.1,33.7,29.69,SSE,158,0.0,0.0,84,0.00,,---,0.02,VWS V12.08,2013-02-14 01:18:00,
2013-02-13 20:20:00,38.1,33.7,29.70,SSE,158,0.0,0.0,84,0.00,,---,0.02,VWS V12.08,2013-02-14 01:20:00,
2013-02-13 20:31:00,38.1,33.7,29.70,SSE,158,0.0,0.0,84,0.00,,---,0.02,VWS V12.08,2013-02-14 01:31:00,
2013-02-13 20:46:00,38.1,33.7,29.70,SSE,158,0.0,0.0,84,0.00,,---,0.02,VWS V12.08,2013-02-14 01:46:00,
2013-02-13 21:01:00,37.9,33.5,29.70,NW,315,0.0,0.0,84,0.00,,---,0.02,VWS V12.08,2013-02-14 02:01:00,
2013-02-13 21:16:00,37.9,33.5,29.71,ENE,68,0.0,0.0,84,0.00,,---,0.02,VWS V12.08,2013-02-14 02:16:00,
2013-02-13 21:20:00,37.9,33.5,29.71,ENE,68,0.0,0.0,84,0.00,,---,0.02,VWS V12.08,2013-02-14 02:20:00,
2013-02-13 21:31:00,37.7,33.3,29.71,ENE,68,0.0,0.0,84,0.00,,---,0.02,VWS V12.08,2013-02-14 02:31:00,
2013-02-13 21:46:00,37.7,33.3,29.72,ENE,68,0.0,0.0,84,0.00,,---,0.02,VWS V12.08,2013-02-14 02:46:00,
2013-02-13 22:01:00,37.7,33.3,29.72,ENE,68,0.0,0.0,84,0.00,,---,0.02,VWS V12.08,2013-02-14 03:01:00,
2013-02-13 22:18:00,37.5,33.1,29.73,East,90,0.0,2.0,84,0.00,,---,0.02,VWS V12.08,2013-02-14 03:18:00,
2013-02-13 22:20:00,37.5,33.1,29.72,NNW,338,0.0,2.0,84,0.00,,---,0.02,VWS V12.08,2013-02-14 03:20:00,
2013-02-13 22:38:00,37.4,33.0,29.72,NE,45,0.0,0.0,84,0.00,,---,0.02,VWS V12.08,2013-02-14 03:38:00,
2013-02-13 22:40:00,37.4,33.0,29.73,NE,45,0.0,0.0,84,0.00,,---,0.02,VWS V12.08,2013-02-14 03:40:00,
2013-02-13 22:56:00,37.5,32.8,29.73,ENE,68,0.0,0.0,83,0.00,,---,0.02,VWS V12.08,2013-02-14 03:56:00,
2013-02-13 23:01:00,37.5,32.8,29.74,ENE,68,0.0,0.0,83,0.00,,---,0.02,VWS V12.08,2013-02-14 04:01:00,
2013-02-13 23:18:00,37.5,33.1,29.74,ENE,68,0.0,0.0,84,0.00,,---,0.02,VWS V12.08,2013-02-14 04:18:00,
2013-02-13 23:20:00,37.5,33.1,29.74,NE,45,0.0,0.0,84,0.00,,---,0.02,VWS V12.08,2013-02-14 04:20:00,
2013-02-13 23:33:00,37.5,33.1,29.74,ENE,68,0.0,0.0,84,0.00,,---,0.02,VWS V12.08,2013-02-14 04:33:00,
2013-02-13 23:48:00,37.5,33.1,29.74,ENE,68,0.0,0.0,84,0.00,,---,0.02,VWS V12.08,2013-02-14 04:48:00,